This is the latest recevied weather packets stored in our database for station/object KA9CBS. If no packets are shown the sender has not sent any weather packets the latest 10 day(s).
| Time | Temp. | Humidity | Pressure | Rain* | Wind** | Luminosity | Snow |
|---|---|---|---|---|---|---|---|
| 1788032125 | 31.67° C | 48% | 1021 hPa | 0 mm | - | 718 W/m² | - |
| 1788031821 | 31.67° C | 48% | 1021 hPa | 0 mm | - | 683 W/m² | - |
| 1788031521 | 31.11° C | 47% | 1021 hPa | 0 mm | - | 451 W/m² | - |
| 1788031221 | 31.11° C | 48% | 1021.3 hPa | 0 mm | - | 681 W/m² | - |
| 1788030920 | 30.56° C | 51% | 1021.1 hPa | 0 mm | - | 736 W/m² | - |
| 1788030619 | 31.11° C | 49% | 1021.1 hPa | 0 mm | - | 716 W/m² | - |
| 1788030314 | 32.22° C | 46% | 1021 hPa | 0 mm | - | 556 W/m² | - |
| 1788030010 | 32.22° C | 46% | 1021.2 hPa | 0 mm | - | 650 W/m² | - |
| 1788029705 | 31.67° C | 47% | 1021.3 hPa | 0 mm | - | 706 W/m² | - |
| 1788029405 | 31.11° C | 50% | 1021.3 hPa | 0 mm | - | 679 W/m² | - |
| 1788029104 | 30° C | 52% | 1021.4 hPa | 0 mm | - | 550 W/m² | - |
| 1788028799 | 30° C | 52% | 1021.5 hPa | 0 mm | - | 448 W/m² | - |
| 1788028493 | 31.11° C | 50% | 1021.6 hPa | 0 mm | - | 272 W/m² | - |
| 1788028189 | 30.56° C | 52% | 1021.6 hPa | 0 mm | - | 446 W/m² | - |
| 1788027889 | 30.56° C | 52% | 1021.5 hPa | 0 mm | - | 754 W/m² | - |
| 1788027584 | 31.11° C | 53% | 1021.9 hPa | 0 mm | - | 710 W/m² | - |
| 1788027283 | 30.56° C | 53% | 1021.7 hPa | 0 mm | - | 729 W/m² | - |
| 1788026978 | 29.44° C | 56% | 1022 hPa | 0 mm | - | 712 W/m² | - |
| 1788026678 | 30° C | 54% | 1021.9 hPa | 0 mm | - | 458 W/m² | - |
| 1788026069 | 31.11° C | 53% | 1022.3 hPa | 0 mm | - | 750 W/m² | - |
| 1788025767 | 30.56° C | 54% | 1022.5 hPa | 0 mm | - | 689 W/m² | - |
| 1788025461 | 30° C | 55% | 1022.3 hPa | 0 mm | - | 599 W/m² | - |
| 1788025158 | 30.56° C | 53% | 1022.5 hPa | 0 mm | - | 231 W/m² | - |
| 1788024852 | 30.56° C | 52% | 1022.5 hPa | 0 mm | - | 558 W/m² | - |
| 1788024548 | 31.11° C | 54% | 1022.5 hPa | 0 mm | - | 613 W/m² | - |
* Rain latest hour (hover to see other rain measurements)
** Current wind speed in m/s (hover to see current wind gust speed)